Unbenanntes Dokument
Flugplatz Bielefeld Platzwetter

 

Aktuelles Platzwetter am Flugplatz Bielefeld EDLI

24.04.18 ,08:51 Uhr

METAR EDLI 240851Z 24005KT 9999 ///018 09/09 Q1017

 

Windwerte

 

Wolkenuntergrenzen

Wind aktuell:250 ° mit 4 kt
Wind 10 min Extrem:
210 ° bis 270 ° mit 3 kt bis 8 kt
Seitenwindkomponente: 3.3 kt
Wolkengrenze 1: 1800 ft
Wolkengrenze 2:
Wolkengrenze 3:

Webcam

Temperatur

       

Sichtweite:

20.000 Meter

9.8 °C
Taupunkt: 9.7 °C
Luftfeuchtigkeit: 99 %

Luftdruck:

QNH: 1017 hPa (30.03 in Hg)
QFE: 1000 hPa (29.53 in Hg)

Diese Daten werden automatisch ermittelt bzw. übertragen und sind nicht geprüft. Für die Richtigkeit wird daher keine Gewähr übernommen. Sie ersetzen im übrigen nicht die Flugwetterberatung. Alle Zeitangaben beziehen sich auf UTC. Die Seite wird einmal die Minute aktualisiert! Sollten Sie ein ältere Seite haben, so drücken Sie bitte auf den Reload Button Ihres Browsers!